| time (UTC) | temp F | wind direction | speed knots | gust knots | rain 1hr in | rain 24hr in | rain mn in | humidity % | barometer mb |
| 20260508170941 | 66 | 330 | 1.7 | 1.7 | 0.00 | 0.00 | 0.00 | 33 | 1009.4 |
| 20260508170314 | 67 | 308 | 2.6 | 2.6 | 0.00 | 0.00 | 0.00 | 34 | 1009.4 |
| 20260508165709 | 70 | 250 | 1.7 | 1.7 | 0.00 | 0.00 | 0.00 | 39 | 1009.8 |
| 20260508165120 | 69 | 255 | 1.7 | 1.7 | 0.00 | 0.00 | 0.00 | 39 | 1009.8 |
| 20260508164533 | 68 | 188 | 2.6 | 2.6 | 0.00 | 0.00 | 0.00 | 37 | 1009.8 |
| 20260508163331 | 68 | 104 | 2.6 | 2.6 | 0.00 | 0.00 | 0.00 | 47 | 1009.8 |
| 20260508162723 | 66 | 116 | 1.7 | 1.7 | 0.00 | 0.00 | 0.00 | 36 | 1010.4 |
| 20260508162130 | 65 | 126 | 2.6 | 2.6 | 0.00 | 0.00 | 0.00 | 38 | 1010.4 |
| 20260508161515 | 65 | 284 | 3.5 | 4.3 | 0.00 | 0.00 | 0.00 | 35 | 1010.4 |
| 20260508160931 | 65 | 120 | 2.6 | 2.6 | 0.00 | 0.00 | 0.00 | 38 | 1010.4 |
| 20260508160338 | 65 | 141 | 0.0 | 0.0 | 0.00 | 0.00 | 0.00 | 41 | 1010.4 |
| 20260508155110 | 64 | 313 | 1.7 | 1.7 | 0.00 | 0.00 | 0.00 | 44 | 1010.8 |
| 20260508154521 | 64 | 130 | 0.9 | 0.9 | 0.00 | 0.00 | 0.00 | 45 | 1010.8 |
| 20260508153937 | 63 | 258 | 0.0 | 0.0 | 0.00 | 0.00 | 0.00 | 54 | 1010.8 |
| 20260508153342 | 62 | 325 | 0.9 | 0.9 | 0.00 | 0.00 | 0.00 | 58 | 1010.8 |
| 20260508152746 | 63 | 153 | 0.9 | 0.9 | 0.00 | 0.00 | 0.00 | 59 | 1010.8 |
| 20260508151536 | 61 | 316 | 1.7 | 1.7 | 0.00 | 0.00 | 0.00 | 65 | 1010.8 |
| 20260508150945 | 60 | 316 | 1.7 | 1.7 | 0.00 | 0.00 | 0.00 | 53 | 1010.8 |
| 20260508145746 | 60 | 287 | 0.9 | 0.9 | 0.00 | 0.00 | 0.00 | 59 | 1010.8 |
| 20260508145148 | 59 | 156 | 0.9 | 0.9 | 0.00 | 0.00 | 0.00 | 71 | 1010.8 |
| 20260508143942 | 58 | 156 | 1.7 | 1.7 | 0.00 | 0.00 | 0.00 | 71 | 1010.8 |
| 20260508142727 | 56 | 156 | 0.9 | 0.9 | 0.00 | 0.00 | 0.00 | 77 | 1011.1 |
| 20260508142149 | 55 | 156 | 0.0 | 0.0 | 0.00 | 0.00 | 0.00 | 77 | 1011.1 |
| 20260508141518 | 54 | 156 | 1.7 | 1.7 | 0.00 | 0.00 | 0.00 | 78 | 1011.1 |
| 20260508140936 | 53 | 156 | 0.0 | 0.0 | 0.00 | 0.00 | 0.00 | 80 | 1011.1 |
| 20260508135748 | 52 | 156 | 0.9 | 0.9 | 0.00 | 0.00 | 0.00 | 83 | 1011.5 |
| 20260508135146 | 50 | 156 | 0.9 | 0.9 | 0.00 | 0.00 | 0.00 | 84 | 1011.5 |
| 20260508134522 | 50 | 156 | 0.0 | 0.0 | 0.00 | 0.00 | 0.00 | 84 | 1011.5 |
| 20260508133916 | 49 | 156 | 0.0 | 0.0 | 0.00 | 0.00 | 0.00 | 86 | 1011.5 |
| 20260508133312 | 48 | 156 | 1.7 | 1.7 | 0.00 | 0.00 | 0.00 | 86 | 1011.5 |
| 20260508132726 | 46 | 158 | 0.9 | 0.9 | 0.00 | 0.00 | 0.00 | 88 | 1011.5 |
| 20260508132122 | 45 | 158 | 0.9 | 0.9 | 0.00 | 0.00 | 0.00 | 91 | 1011.5 |
| 20260508130308 | 44 | 158 | 0.9 | 0.9 | 0.00 | 0.00 | 0.00 | 92 | 1011.5 |
| 20260508125126 | 43 | 157 | 1.7 | 1.7 | 0.00 | 0.00 | 0.00 | 95 | 1011.5 |
| 20260508123936 | 42 | 158 | 0.0 | 0.0 | 0.00 | 0.00 | 0.00 | 97 | 1011.8 |
| 20260508123350 | 41 | 159 | 0.0 | 0.0 | 0.00 | 0.00 | 0.00 | 97 | 1011.8 |
| 20260508122731 | 41 | 158 | 0.0 | 0.0 | 0.00 | 0.00 | 0.00 | 97 | 1011.8 |
| 20260508122120 | 40 | 159 | 1.7 | 1.7 | 0.00 | 0.00 | 0.00 | 97 | 1011.8 |
| 20260508121537 | 40 | 159 | 1.7 | 1.7 | 0.00 | 0.00 | 0.00 | 98 | 1011.8 |
| 20260508120920 | 39 | 158 | 0.0 | 0.0 | 0.00 | 0.00 | 0.00 | 98 | 1011.8 |
| 20260508115710 | 38 | 158 | 0.0 | 0.0 | 0.00 | 0.00 | 0.00 | 98 | 1011.5 |
| 20260508115148 | 38 | 158 | 1.7 | 1.7 | 0.00 | 0.00 | 0.00 | 98 | 1011.5 |
| 20260508114519 | 38 | 158 | 1.7 | 1.7 | 0.00 | 0.00 | 0.00 | 98 | 1011.5 |
| 20260508113930 | 37 | 158 | 1.7 | 1.7 | 0.00 | 0.00 | 0.00 | 98 | 1011.5 |
| 20260508113316 | 37 | 160 | 0.9 | 0.9 | 0.00 | 0.00 | 0.00 | 98 | 1011.5 |
| 20260508112719 | 37 | 159 | 1.7 | 1.7 | 0.00 | 0.00 | 0.00 | 98 | 1011.1 |
| 20260508112143 | 37 | 159 | 1.7 | 1.7 | 0.00 | 0.00 | 0.00 | 99 | 1011.1 |
| 20260508111542 | 37 | 159 | 0.0 | 0.0 | 0.00 | 0.00 | 0.00 | 99 | 1011.1 |
| 20260508110922 | 37 | 162 | 0.0 | 0.0 | 0.00 | 0.00 | 0.00 | 99 | 1011.1 |
| 20260508110326 | 37 | 162 | 1.7 | 1.7 | 0.00 | 0.00 | 0.00 | 99 | 1011.1 |
| 20260508105142 | 37 | 162 | 1.7 | 1.7 | 0.00 | 0.00 | 0.00 | 99 | 1011.1 |
| 20260508103936 | 37 | 162 | 1.7 | 1.7 | 0.00 | 0.00 | 0.00 | 99 | 1010.8 |
| 20260508103338 | 37 | 162 | 0.0 | 0.0 | 0.00 | 0.00 | 0.00 | 99 | 1010.8 |
| 20260508102715 | 37 | 162 | 1.7 | 1.7 | 0.00 | 0.00 | 0.00 | 99 | 1010.8 |
| 20260508102115 | 37 | 162 | 1.7 | 1.7 | 0.00 | 0.00 | 0.00 | 99 | 1010.8 |
| 20260508101512 | 37 | 162 | 1.7 | 1.7 | 0.00 | 0.00 | 0.00 | 99 | 1010.4 |
| 20260508100938 | 37 | 162 | 1.7 | 1.7 | 0.00 | 0.00 | 0.00 | 99 | 1010.4 |
| 20260508100331 | 37 | 162 | 1.7 | 1.7 | 0.00 | 0.00 | 0.00 | 98 | 1010.4 |
| 20260508095748 | 37 | 162 | 1.7 | 1.7 | 0.00 | 0.00 | 0.00 | 98 | 1010.4 |
| 20260508095130 | 37 | 162 | 1.7 | 1.7 | 0.00 | 0.00 | 0.00 | 98 | 1010.4 |
| 20260508094522 | 37 | 162 | 1.7 | 1.7 | 0.00 | 0.00 | 0.00 | 98 | 1010.4 |
| 20260508093943 | 38 | 162 | 1.7 | 1.7 | 0.00 | 0.00 | 0.00 | 98 | 1010.4 |
| 20260508092722 | 38 | 162 | 1.7 | 1.7 | 0.00 | 0.00 | 0.00 | 98 | 1010.4 |
| 20260508092142 | 38 | 163 | 1.7 | 1.7 | 0.00 | 0.00 | 0.00 | 98 | 1010.4 |
| 20260508091528 | 38 | 164 | 1.7 | 1.7 | 0.00 | 0.00 | 0.00 | 98 | 1010.4 |
| 20260508090932 | 38 | 264 | 1.7 | 1.7 | 0.00 | 0.00 | 0.00 | 98 | 1010.1 |
| 20260508085139 | 38 | 269 | 1.7 | 1.7 | 0.00 | 0.00 | 0.00 | 98 | 1010.1 |
| 20260508084547 | 38 | 269 | 1.7 | 1.7 | 0.00 | 0.00 | 0.00 | 98 | 1010.1 |
| 20260508083912 | 38 | 269 | 1.7 | 1.7 | 0.00 | 0.00 | 0.00 | 98 | 1010.4 |
| 20260508083313 | 38 | 269 | 0.9 | 0.9 | 0.00 | 0.00 | 0.00 | 98 | 1010.4 |
| 20260508082735 | 38 | 270 | 0.0 | 0.0 | 0.00 | 0.00 | 0.00 | 98 | 1010.1 |
| 20260508082150 | 38 | 270 | 0.9 | 0.9 | 0.00 | 0.00 | 0.00 | 98 | 1010.1 |
| 20260508081537 | 38 | 270 | 0.0 | 0.0 | 0.00 | 0.00 | 0.00 | 98 | 1010.1 |
| 20260508080328 | 38 | 269 | 1.7 | 1.7 | 0.00 | 0.00 | 0.00 | 98 | 1010.1 |
| 20260508075731 | 38 | 270 | 0.9 | 0.9 | 0.00 | 0.00 | 0.00 | 98 | 1010.1 |
| 20260508075120 | 39 | 270 | 1.7 | 1.7 | 0.00 | 0.00 | 0.00 | 98 | 1010.1 |
| 20260508074529 | 39 | 270 | 1.7 | 1.7 | 0.00 | 0.00 | 0.00 | 98 | 1010.1 |
| 20260508073327 | 39 | 270 | 0.0 | 0.0 | 0.00 | 0.00 | 0.00 | 98 | 1009.8 |
| 20260508072733 | 39 | 270 | 0.0 | 0.0 | 0.00 | 0.00 | 0.00 | 98 | 1010.1 |
| 20260508072115 | 39 | 270 | 0.9 | 0.9 | 0.00 | 0.00 | 0.00 | 98 | 1010.1 |
| 20260508071537 | 39 | 270 | 1.7 | 1.7 | 0.00 | 0.00 | 0.00 | 98 | 1010.1 |
| 20260508070951 | 39 | 270 | 1.7 | 1.7 | 0.00 | 0.00 | 0.00 | 98 | 1009.8 |
| 20260508070338 | 39 | 282 | 1.7 | 1.7 | 0.00 | 0.00 | 0.00 | 97 | 1009.8 |
| 20260508065738 | 40 | 285 | 0.0 | 0.0 | 0.00 | 0.00 | 0.00 | 97 | 1009.8 |
| 20260508065133 | 40 | 282 | 0.0 | 0.0 | 0.00 | 0.00 | 0.00 | 97 | 1009.8 |
| 20260508064520 | 39 | 282 | 0.0 | 0.0 | 0.00 | 0.00 | 0.00 | 97 | 1009.8 |
| 20260508063925 | 39 | 288 | 0.9 | 0.9 | 0.00 | 0.00 | 0.00 | 96 | 1009.8 |
| 20260508063318 | 40 | 288 | 1.7 | 1.7 | 0.00 | 0.00 | 0.00 | 96 | 1009.8 |
| 20260508062742 | 40 | 288 | 1.7 | 1.7 | 0.00 | 0.00 | 0.00 | 96 | 1010.1 |
| 20260508062146 | 40 | 288 | 1.7 | 1.7 | 0.00 | 0.00 | 0.00 | 95 | 1010.1 |
| 20260508061530 | 39 | 288 | 0.9 | 0.9 | 0.00 | 0.00 | 0.00 | 95 | 1010.1 |
| 20260508060909 | 40 | 288 | 1.7 | 1.7 | 0.00 | 0.00 | 0.00 | 95 | 1010.1 |
| 20260508060341 | 39 | 288 | 1.7 | 1.7 | 0.00 | 0.00 | 0.00 | 95 | 1010.1 |
| 20260508055751 | 40 | 288 | 0.0 | 0.0 | 0.00 | 0.00 | 0.00 | 95 | 1010.1 |
| 20260508055141 | 39 | 288 | 0.0 | 0.0 | 0.00 | 0.00 | 0.00 | 95 | 1010.1 |
| 20260508054544 | 39 | 288 | 1.7 | 1.7 | 0.00 | 0.00 | 0.00 | 96 | 1010.1 |
| 20260508052738 | 39 | 288 | 0.0 | 0.0 | 0.00 | 0.00 | 0.00 | 95 | 1009.4 |
| 20260508052132 | 39 | 288 | 0.0 | 0.0 | 0.00 | 0.00 | 0.00 | 95 | 1009.4 |
| 20260508051526 | 39 | 288 | 0.0 | 0.0 | 0.00 | 0.00 | 0.00 | 94 | 1009.4 |
| 20260508050945 | 40 | 288 | 0.0 | 0.0 | 0.00 | 0.00 | 0.00 | 94 | 1009.8 |
| 20260508050309 | 40 | 288 | 0.0 | 0.0 | 0.00 | 0.00 | 0.00 | 94 | 1009.8 |
| 20260508045724 | 40 | 288 | 0.0 | 0.0 | 0.00 | 0.00 | 0.00 | 94 | 1009.4 |
| 20260508045128 | 40 | 288 | 0.0 | 0.0 | 0.00 | 0.00 | 0.00 | 94 | 1009.4 |
| 20260508044542 | 40 | 288 | 0.0 | 0.0 | 0.00 | 0.00 | 0.00 | 94 | 1009.4 |
| 20260508043936 | 41 | 288 | 0.0 | 0.0 | 0.00 | 0.00 | 0.00 | 94 | 1009.1 |
| 20260508043347 | 41 | 288 | 0.0 | 0.0 | 0.00 | 0.00 | 0.00 | 94 | 1009.1 |
| 20260508042723 | 41 | 288 | 1.7 | 1.7 | 0.00 | 0.00 | 0.00 | 94 | 1009.1 |
| 20260508042141 | 41 | 288 | 0.0 | 0.0 | 0.00 | 0.00 | 0.00 | 93 | 1009.1 |
| 20260508041532 | 42 | 288 | 0.0 | 0.0 | 0.00 | 0.00 | 0.00 | 93 | 1009.1 |
| 20260508040318 | 42 | 288 | 0.0 | 0.0 | 0.00 | 0.00 | 0.00 | 93 | 1009.4 |
| 20260508035120 | 42 | 288 | 0.0 | 0.0 | 0.00 | 0.00 | 0.01 | 93 | 1009.1 |
| 20260508034526 | 42 | 288 | 1.7 | 1.7 | 0.00 | 0.00 | 0.01 | 93 | 1009.1 |
| 20260508033916 | 42 | 288 | 0.9 | 0.9 | 0.00 | 0.00 | 0.01 | 93 | 1009.1 |
| 20260508033321 | 43 | 288 | 1.7 | 1.7 | 0.00 | 0.00 | 0.01 | 93 | 1009.1 |
| 20260508032734 | 42 | 288 | 0.0 | 0.0 | 0.00 | 0.00 | 0.01 | 93 | 1009.1 |
| 20260508032147 | 43 | 288 | 0.0 | 0.0 | 0.00 | 0.00 | 0.01 | 93 | 1009.1 |
| 20260508031526 | 44 | 288 | 0.0 | 0.0 | 0.00 | 0.00 | 0.01 | 93 | 1009.1 |
| 20260508030931 | 43 | 288 | 0.0 | 0.0 | 0.00 | 0.00 | 0.01 | 93 | 1009.1 |
| 20260508030311 | 43 | 288 | 0.0 | 0.0 | 0.00 | 0.00 | 0.01 | 93 | 1009.1 |
| 20260508025719 | 44 | 288 | 0.0 | 0.0 | 0.00 | 0.00 | 0.01 | 93 | 1008.8 |
| 20260508025114 | 44 | 288 | 0.0 | 0.0 | 0.00 | 0.00 | 0.01 | 92 | 1008.8 |
| 20260508024525 | 44 | 288 | 0.0 | 0.0 | 0.00 | 0.00 | 0.01 | 92 | 1008.8 |
| 20260508023946 | 45 | 288 | 0.0 | 0.0 | 0.00 | 0.00 | 0.01 | 92 | 1008.8 |
| 20260508023341 | 45 | 288 | 0.0 | 0.0 | 0.00 | 0.00 | 0.01 | 91 | 1008.8 |
| 20260508022723 | 46 | 288 | 0.0 | 0.0 | 0.00 | 0.00 | 0.01 | 91 | 1008.1 |
| 20260508021515 | 46 | 288 | 0.0 | 0.0 | 0.00 | 0.00 | 0.01 | 91 | 1008.4 |
| 20260508020945 | 46 | 288 | 1.7 | 1.7 | 0.00 | 0.00 | 0.01 | 90 | 1008.4 |
| 20260508020349 | 46 | 288 | 1.7 | 1.7 | 0.00 | 0.00 | 0.01 | 90 | 1008.4 |
| 20260508015738 | 46 | 288 | 0.9 | 0.9 | 0.00 | 0.00 | 0.01 | 90 | 1007.7 |
| 20260508015145 | 46 | 288 | 1.7 | 1.7 | 0.00 | 0.00 | 0.01 | 90 | 1007.7 |
| 20260508014517 | 47 | 288 | 0.9 | 0.9 | 0.00 | 0.00 | 0.01 | 90 | 1007.7 |
| 20260508012725 | 48 | 291 | 0.0 | 0.0 | 0.00 | 0.00 | 0.01 | 88 | 1007.4 |
| 20260508011528 | 48 | 291 | 0.0 | 0.0 | 0.00 | 0.00 | 0.01 | 88 | 1007.4 |
| 20260508010935 | 49 | 291 | 0.0 | 0.0 | 0.00 | 0.00 | 0.01 | 87 | 1007.1 |
| 20260508010349 | 49 | 291 | 0.0 | 0.0 | 0.00 | 0.00 | 0.01 | 87 | 1007.1 |
| 20260508005736 | 49 | 291 | 0.0 | 0.0 | 0.00 | 0.00 | 0.01 | 86 | 1007.1 |
| 20260508003908 | 50 | 291 | 0.0 | 0.0 | 0.00 | 0.00 | 0.01 | 82 | 1006.7 |
| 20260508003340 | 50 | 291 | 0.0 | 0.0 | 0.00 | 0.00 | 0.01 | 83 | 1006.7 |
| 20260508002734 | 51 | 291 | 0.0 | 0.0 | 0.00 | 0.00 | 0.01 | 81 | 1006.7 |
| 20260508002110 | 52 | 291 | 1.7 | 1.7 | 0.00 | 0.00 | 0.01 | 81 | 1006.7 |
| 20260508001532 | 52 | 291 | 0.0 | 0.0 | 0.00 | 0.00 | 0.01 | 78 | 1006.7 |
| 20260508000949 | 52 | 291 | 0.0 | 0.0 | 0.00 | 0.00 | 0.01 | 77 | 1006.4 |
| 20260508000335 | 52 | 291 | 0.0 | 0.0 | 0.00 | 0.00 | 0.01 | 78 | 1006.4 |
| 20260507235747 | 53 | 291 | 0.0 | 0.0 | 0.00 | 0.00 | 0.01 | 79 | 1006.4 |
| 20260507235119 | 54 | 291 | 0.0 | 0.0 | 0.00 | 0.00 | 0.01 | 76 | 1006.4 |
| 20260507234551 | 54 | 291 | 0.0 | 0.0 | 0.00 | 0.00 | 0.01 | 79 | 1006.4 |
| 20260507233938 | 54 | 291 | 0.9 | 0.9 | 0.00 | 0.00 | 0.01 | 81 | 1006.0 |
| 20260507233347 | 55 | 291 | 0.0 | 0.0 | 0.00 | 0.00 | 0.01 | 80 | 1006.0 |
| 20260507231535 | 56 | 236 | 0.0 | 0.0 | 0.00 | 0.00 | 0.01 | 78 | 1006.0 |
| 20260507225744 | 57 | 241 | 1.7 | 1.7 | 0.00 | 0.00 | 0.01 | 76 | 1006.0 |
| 20260507225120 | 58 | 241 | 1.7 | 1.7 | 0.00 | 0.00 | 0.01 | 74 | 1006.0 |
| 20260507224527 | 58 | 240 | 0.9 | 0.9 | 0.00 | 0.00 | 0.01 | 75 | 1006.0 |
| 20260507223918 | 58 | 241 | 0.0 | 0.0 | 0.00 | 0.00 | 0.01 | 74 | 1006.0 |
| 20260507223338 | 58 | 241 | 0.0 | 0.0 | 0.00 | 0.00 | 0.01 | 74 | 1006.0 |
| 20260507222719 | 59 | 241 | 0.0 | 0.0 | 0.00 | 0.00 | 0.01 | 69 | 1006.0 |
| 20260507221516 | 60 | 46 | 0.0 | 0.0 | 0.00 | 0.00 | 0.01 | 67 | 1005.7 |
| 20260507220312 | 61 | 49 | 0.0 | 0.0 | 0.00 | 0.00 | 0.01 | 62 | 1005.7 |
| 20260507215738 | 61 | 48 | 0.0 | 0.0 | 0.00 | 0.00 | 0.01 | 71 | 1005.4 |
| 20260507215144 | 61 | 48 | 1.7 | 1.7 | 0.00 | 0.00 | 0.01 | 64 | 1005.4 |
| 20260507213944 | 60 | 299 | 1.7 | 1.7 | 0.00 | 0.00 | 0.01 | 61 | 1005.7 |
| 20260507212737 | 62 | 120 | 4.3 | 4.3 | 0.00 | 0.00 | 0.01 | 60 | 1005.4 |
| 20260507211532 | 64 | 228 | 2.6 | 2.6 | 0.00 | 0.00 | 0.01 | 48 | 1005.4 |
| 20260507210928 | 63 | 205 | 0.9 | 0.9 | 0.00 | 0.00 | 0.01 | 55 | 1005.0 |
| 20260507210344 | 64 | 193 | 1.7 | 1.7 | 0.00 | 0.00 | 0.01 | 53 | 1005.0 |
| 20260507204547 | 65 | 8 | 1.7 | 1.7 | 0.00 | 0.00 | 0.01 | 49 | 1005.0 |
| 20260507202737 | 64 | 205 | 0.9 | 0.9 | 0.00 | 0.00 | 0.01 | 45 | 1005.4 |
| 20260507202152 | 65 | 217 | 0.9 | 0.9 | 0.00 | 0.00 | 0.01 | 47 | 1005.4 |
| 20260507201538 | 63 | 193 | 1.7 | 1.7 | 0.00 | 0.00 | 0.01 | 52 | 1005.4 |
| 20260507200938 | 63 | 126 | 2.6 | 2.6 | 0.00 | 0.00 | 0.01 | 51 | 1005.7 |
| 20260507195752 | 64 | 282 | 2.6 | 2.6 | 0.00 | 0.00 | 0.01 | 49 | 1005.4 |
| 20260507195151 | 62 | 264 | 0.0 | 0.0 | 0.00 | 0.00 | 0.01 | 52 | 1005.4 |
| 20260507194514 | 64 | 132 | 0.9 | 0.9 | 0.00 | 0.00 | 0.01 | 51 | 1005.7 |
| 20260507193951 | 63 | 252 | 1.7 | 1.7 | 0.00 | 0.00 | 0.01 | 51 | 1005.7 |
| 20260507192732 | 64 | 72 | 1.7 | 1.7 | 0.00 | 0.00 | 0.01 | 51 | 1006.0 |
| 20260507192146 | 63 | 330 | 2.6 | 2.6 | 0.00 | 0.00 | 0.01 | 51 | 1006.0 |
| 20260507191535 | 64 | 252 | 2.6 | 2.6 | 0.00 | 0.00 | 0.01 | 52 | 1006.0 |
| 20260507190936 | 63 | 96 | 1.7 | 1.7 | 0.00 | 0.00 | 0.01 | 53 | 1006.0 |
| 20260507185724 | 62 | 233 | 4.3 | 5.2 | 0.00 | 0.00 | 0.01 | 55 | 1006.4 |
| 20260507185150 | 60 | 202 | 1.7 | 1.7 | 0.00 | 0.00 | 0.01 | 60 | 1006.4 |
| 20260507184549 | 60 | 281 | 1.7 | 1.7 | 0.00 | 0.00 | 0.01 | 56 | 1006.4 |
| 20260507183952 | 61 | 250 | 2.6 | 2.6 | 0.00 | 0.00 | 0.01 | 56 | 1006.4 |
| 20260507183308 | 60 | 258 | 0.0 | 0.0 | 0.00 | 0.00 | 0.01 | 63 | 1006.4 |
| 20260507182714 | 59 | 240 | 1.7 | 1.7 | 0.00 | 0.00 | 0.01 | 59 | 1006.7 |
| 20260507182150 | 59 | 217 | 1.7 | 1.7 | 0.00 | 0.00 | 0.01 | 65 | 1006.7 |
| 20260507181510 | 60 | 258 | 1.7 | 1.7 | 0.00 | 0.00 | 0.01 | 65 | 1006.4 |
| 20260507180928 | 60 | 258 | 0.0 | 0.0 | 0.00 | 0.00 | 0.01 | 62 | 1006.4 |
| 20260507180324 | 60 | 104 | 1.7 | 1.7 | 0.00 | 0.00 | 0.01 | 58 | 1006.4 |
| 20260507174520 | 58 | 160 | 1.7 | 1.7 | 0.00 | 0.00 | 0.01 | 63 | 1006.7 |
| 20260507173945 | 58 | 156 | 1.7 | 1.7 | 0.00 | 0.00 | 0.01 | 64 | 1006.7 |
| 20260507172732 | 58 | 146 | 1.7 | 1.7 | 0.00 | 0.00 | 0.01 | 60 | 1006.7 |
| 20260507172129 | 58 | 178 | 2.6 | 3.5 | 0.00 | 0.00 | 0.01 | 62 | 1006.7 |